sensor_id;sensor_type;location;lat;lon;timestamp;pressure;altitude;pressure_sealevel;temperature;humidity
47522;BME280;32291;52.010;4.446;2023-07-20T00:00:28;77872.22;;;-144.67;100.00
47522;BME280;32291;52.010;4.446;2023-07-20T00:01:35;77863.63;;;-144.67;100.00
47522;BME280;32291;52.010;4.446;2023-07-20T00:02:42;77876.50;;;-144.67;100.00
47522;BME280;32291;52.010;4.446;2023-07-20T00:03:44;77870.06;;;-144.67;100.00
47522;BME280;32291;52.010;4.446;2023-07-20T00:04:47;77876.50;;;-144.67;100.00
47522;BME280;32291;52.010;4.446;2023-07-20T00:05:49;77876.50;;;-144.67;100.00
47522;BME280;32291;52.010;4.446;2023-07-20T00:06:54;77872.22;;;-144.67;100.00
47522;BME280;32291;52.010;4.446;2023-07-20T00:07:56;77867.94;;;-144.67;100.00
47522;BME280;32291;52.010;4.446;2023-07-20T00:08:59;77876.50;;;-144.67;100.00
47522;BME280;32291;52.010;4.446;2023-07-20T00:10:01;77867.94;;;-144.67;100.00
47522;BME280;32291;52.010;4.446;2023-07-20T00:11:04;77870.06;;;-144.67;100.00
47522;BME280;32291;52.010;4.446;2023-07-20T00:12:11;77872.22;;;-144.67;100.00
47522;BME280;32291;52.010;4.446;2023-07-20T00:13:18;77863.63;;;-144.67;100.00
47522;BME280;32291;52.010;4.446;2023-07-20T00:14:26;77876.50;;;-144.67;100.00
47522;BME280;32291;52.010;4.446;2023-07-20T00:15:28;77880.78;;;-144.67;100.00
47522;BME280;32291;52.010;4.446;2023-07-20T00:16:30;77882.91;;;-144.67;100.00
47522;BME280;32291;52.010;4.446;2023-07-20T00:17:33;77880.78;;;-144.67;100.00
47522;BME280;32291;52.010;4.446;2023-07-20T00:18:40;77880.78;;;-144.67;100.00
47522;BME280;32291;52.010;4.446;2023-07-20T00:19:42;77885.06;;;-144.67;100.00
47522;BME280;32291;52.010;4.446;2023-07-20T00:20:45;77876.50;;;-144.67;100.00
47522;BME280;32291;52.010;4.446;2023-07-20T00:21:52;77885.06;;;-144.67;100.00
47522;BME280;32291;52.010;4.446;2023-07-20T00:22:54;77887.19;;;-144.67;100.00
47522;BME280;32291;52.010;4.446;2023-07-20T00:24:01;77880.78;;;-144.67;100.00
47522;BME280;32291;52.010;4.446;2023-07-20T00:25:04;77887.19;;;-144.67;100.00
47522;BME280;32291;52.010;4.446;2023-07-20T00:26:11;77885.06;;;-144.67;100.00
47522;BME280;32291;52.010;4.446;2023-07-20T00:27:14;77891.47;;;-144.67;100.00
47522;BME280;32291;52.010;4.446;2023-07-20T00:28:16;77880.78;;;-144.67;100.00
47522;BME280;32291;52.010;4.446;2023-07-20T00:29:18;77893.63;;;-144.67;100.00
47522;BME280;32291;52.010;4.446;2023-07-20T00:30:20;77904.31;;;-144.67;100.00
47522;BME280;32291;52.010;4.446;2023-07-20T00:31:23;77915.03;;;-144.67;100.00
47522;BME280;32291;52.010;4.446;2023-07-20T00:32:25;77908.59;;;-144.67;100.00
47522;BME280;32291;52.010;4.446;2023-07-20T00:33:32;77906.47;;;-144.67;100.00
47522;BME280;32291;52.010;4.446;2023-07-20T00:34:39;77908.59;;;-144.67;100.00
47522;BME280;32291;52.010;4.446;2023-07-20T00:35:46;77908.59;;;-144.67;100.00
47522;BME280;32291;52.010;4.446;2023-07-20T00:36:48;77915.03;;;-144.67;100.00
47522;BME280;32291;52.010;4.446;2023-07-20T00:37:51;77910.75;;;-144.67;100.00
47522;BME280;32291;52.010;4.446;2023-07-20T00:38:53;77904.31;;;-144.67;100.00
47522;BME280;32291;52.010;4.446;2023-07-20T00:39:55;77902.19;;;-144.67;100.00
47522;BME280;32291;52.010;4.446;2023-07-20T00:40:57;77904.31;;;-144.67;100.00
47522;BME280;32291;52.010;4.446;2023-07-20T00:41:59;77904.31;;;-144.67;100.00
47522;BME280;32291;52.010;4.446;2023-07-20T00:43:02;77906.47;;;-144.67;100.00
47522;BME280;32291;52.010;4.446;2023-07-20T00:44:05;77904.31;;;-144.67;100.00
47522;BME280;32291;52.010;4.446;2023-07-20T00:45:08;77897.91;;;-144.67;100.00
47522;BME280;32291;52.010;4.446;2023-07-20T00:46:15;77902.19;;;-144.67;100.00
47522;BME280;32291;52.010;4.446;2023-07-20T00:47:18;77906.47;;;-144.67;100.00
47522;BME280;32291;52.010;4.446;2023-07-20T00:48:20;77904.31;;;-144.67;100.00
47522;BME280;32291;52.010;4.446;2023-07-20T00:49:28;77908.59;;;-144.67;100.00
47522;BME280;32291;52.010;4.446;2023-07-20T00:50:35;77910.75;;;-144.67;100.00
47522;BME280;32291;52.010;4.446;2023-07-20T00:51:43;77915.03;;;-144.67;100.00
47522;BME280;32291;52.010;4.446;2023-07-20T00:52:45;77915.03;;;-144.67;100.00
47522;BME280;32291;52.010;4.446;2023-07-20T00:53:53;77910.75;;;-144.67;100.00
47522;BME280;32291;52.010;4.446;2023-07-20T00:55:01;77917.16;;;-144.67;100.00
47522;BME280;32291;52.010;4.446;2023-07-20T00:56:10;77912.88;;;-144.67;100.00
47522;BME280;32291;52.010;4.446;2023-07-20T00:57:19;77912.88;;;-144.67;100.00
47522;BME280;32291;52.010;4.446;2023-07-20T00:58:22;77908.59;;;-144.67;100.00
47522;BME280;32291;52.010;4.446;2023-07-20T00:59:30;77915.03;;;-144.67;100.00
47522;BME280;32291;52.010;4.446;2023-07-20T01:00:40;77915.03;;;-144.67;100.00
47522;BME280;32291;52.010;4.446;2023-07-20T01:01:42;77919.31;;;-144.67;100.00
47522;BME280;32291;52.010;4.446;2023-07-20T01:02:50;77921.44;;;-144.67;100.00
47522;BME280;32291;52.010;4.446;2023-07-20T01:03:57;77919.31;;;-144.67;100.00
47522;BME280;32291;52.010;4.446;2023-07-20T01:05:00;77919.31;;;-144.67;100.00
47522;BME280;32291;52.010;4.446;2023-07-20T01:06:29;77925.72;;;-144.67;100.00
47522;BME280;32291;52.010;4.446;2023-07-20T01:07:36;77927.88;;;-144.67;100.00
47522;BME280;32291;52.010;4.446;2023-07-20T01:09:13;77930.00;;;-144.67;100.00
47522;BME280;32291;52.010;4.446;2023-07-20T01:10:33;77932.16;;;-144.67;100.00
47522;BME280;32291;52.010;4.446;2023-07-20T01:11:59;77936.44;;;-144.67;100.00
47522;BME280;32291;52.010;4.446;2023-07-20T01:13:07;77932.16;;;-144.67;100.00
47522;BME280;32291;52.010;4.446;2023-07-20T01:14:17;77932.16;;;-144.67;100.00
47522;BME280;32291;52.010;4.446;2023-07-20T01:15:24;77934.28;;;-144.67;100.00
47522;BME280;32291;52.010;4.446;2023-07-20T01:16:32;77934.28;;;-144.67;100.00
47522;BME280;32291;52.010;4.446;2023-07-20T01:17:36;77938.56;;;-144.67;100.00
47522;BME280;32291;52.010;4.446;2023-07-20T01:18:43;77945.00;;;-144.67;100.00
47522;BME280;32291;52.010;4.446;2023-07-20T01:19:50;77949.28;;;-144.67;100.00
47522;BME280;32291;52.010;4.446;2023-07-20T01:21:08;77947.13;;;-144.67;100.00
47522;BME280;32291;52.010;4.446;2023-07-20T01:24:37;77957.84;;;-144.67;100.00
47522;BME280;32291;52.010;4.446;2023-07-20T01:32:02;77974.97;;;-144.67;100.00
47522;BME280;32291;52.010;4.446;2023-07-20T01:33:08;77979.25;;;-144.67;100.00
47522;BME280;32291;52.010;4.446;2023-07-20T01:34:17;77974.97;;;-144.67;100.00
47522;BME280;32291;52.010;4.446;2023-07-20T01:35:30;77983.53;;;-144.67;100.00
47522;BME280;32291;52.010;4.446;2023-07-20T01:36:38;77979.25;;;-144.67;100.00
47522;BME280;32291;52.010;4.446;2023-07-20T01:37:44;77977.09;;;-144.67;100.00
47522;BME280;32291;52.010;4.446;2023-07-20T01:38:53;77979.25;;;-144.67;100.00
47522;BME280;32291;52.010;4.446;2023-07-20T01:39:56;77983.53;;;-144.67;100.00
47522;BME280;32291;52.010;4.446;2023-07-20T01:41:05;77985.66;;;-144.67;100.00
47522;BME280;32291;52.010;4.446;2023-07-20T01:42:12;77985.66;;;-144.67;100.00
47522;BME280;32291;52.010;4.446;2023-07-20T01:43:19;77989.94;;;-144.67;100.00
47522;BME280;32291;52.010;4.446;2023-07-20T01:44:21;77992.09;;;-144.67;100.00
47522;BME280;32291;52.010;4.446;2023-07-20T01:45:31;77989.94;;;-144.67;100.00
47522;BME280;32291;52.010;4.446;2023-07-20T01:46:33;77989.94;;;-144.67;100.00
47522;BME280;32291;52.010;4.446;2023-07-20T01:47:40;77996.38;;;-144.67;100.00
47522;BME280;32291;52.010;4.446;2023-07-20T01:48:47;77996.38;;;-144.67;100.00
47522;BME280;32291;52.010;4.446;2023-07-20T01:49:54;77992.09;;;-144.67;100.00
47522;BME280;32291;52.010;4.446;2023-07-20T01:50:56;77996.38;;;-144.67;100.00
47522;BME280;32291;52.010;4.446;2023-07-20T01:51:58;78004.94;;;-144.67;100.00
47522;BME280;32291;52.010;4.446;2023-07-20T01:53:03;78002.78;;;-144.67;100.00
47522;BME280;32291;52.010;4.446;2023-07-20T01:54:06;77996.38;;;-144.67;100.00
47522;BME280;32291;52.010;4.446;2023-07-20T01:55:08;77996.38;;;-144.67;100.00
47522;BME280;32291;52.010;4.446;2023-07-20T01:56:15;77994.22;;;-144.67;100.00
47522;BME280;32291;52.010;4.446;2023-07-20T01:57:23;77992.09;;;-144.67;100.00
47522;BME280;32291;52.010;4.446;2023-07-20T01:58:25;77994.22;;;-144.67;100.00
47522;BME280;32291;52.010;4.446;2023-07-20T01:59:27;77996.38;;;-144.67;100.00
47522;BME280;32291;52.010;4.446;2023-07-20T02:00:29;77992.09;;;-144.67;100.00
47522;BME280;32291;52.010;4.446;2023-07-20T02:01:39;77992.09;;;-144.67;100.00
47522;BME280;32291;52.010;4.446;2023-07-20T02:02:46;77992.09;;;-144.67;100.00
47522;BME280;32291;52.010;4.446;2023-07-20T02:03:49;77992.09;;;-144.67;100.00
47522;BME280;32291;52.010;4.446;2023-07-20T02:04:55;77992.09;;;-144.67;100.00
47522;BME280;32291;52.010;4.446;2023-07-20T02:06:02;77996.38;;;-144.67;100.00
47522;BME280;32291;52.010;4.446;2023-07-20T02:07:09;77992.09;;;-144.67;100.00
47522;BME280;32291;52.010;4.446;2023-07-20T02:08:11;77992.09;;;-144.67;100.00
47522;BME280;32291;52.010;4.446;2023-07-20T02:09:14;77987.81;;;-144.67;100.00
47522;BME280;32291;52.010;4.446;2023-07-20T02:10:16;77992.09;;;-144.67;100.00
47522;BME280;32291;52.010;4.446;2023-07-20T02:11:23;77998.50;;;-144.67;100.00
47522;BME280;32291;52.010;4.446;2023-07-20T02:12:30;77996.38;;;-144.67;100.00
47522;BME280;32291;52.010;4.446;2023-07-20T02:13:32;77992.09;;;-144.67;100.00
47522;BME280;32291;52.010;4.446;2023-07-20T02:14:39;77996.38;;;-144.67;100.00
47522;BME280;32291;52.010;4.446;2023-07-20T02:15:42;77994.22;;;-144.67;100.00
47522;BME280;32291;52.010;4.446;2023-07-20T02:16:44;78004.94;;;-144.67;100.00
47522;BME280;32291;52.010;4.446;2023-07-20T02:17:51;77994.22;;;-144.67;100.00
47522;BME280;32291;52.010;4.446;2023-07-20T02:18:53;78000.66;;;-144.67;100.00
47522;BME280;32291;52.010;4.446;2023-07-20T02:20:04;77996.38;;;-144.67;100.00
47522;BME280;32291;52.010;4.446;2023-07-20T02:21:06;78004.94;;;-144.67;100.00
47522;BME280;32291;52.010;4.446;2023-07-20T02:22:13;78011.34;;;-144.67;100.00
47522;BME280;32291;52.010;4.446;2023-07-20T02:23:20;78017.78;;;-144.67;100.00
47522;BME280;32291;52.010;4.446;2023-07-20T02:24:27;78009.22;;;-144.67;100.00
47522;BME280;32291;52.010;4.446;2023-07-20T02:25:29;78013.50;;;-144.67;100.00
47522;BME280;32291;52.010;4.446;2023-07-20T02:26:31;78007.06;;;-144.67;100.00
47522;BME280;32291;52.010;4.446;2023-07-20T02:27:37;78009.22;;;-144.67;100.00
47522;BME280;32291;52.010;4.446;2023-07-20T02:28:44;78013.50;;;-144.67;100.00
47522;BME280;32291;52.010;4.446;2023-07-20T02:29:47;78013.50;;;-144.67;100.00
47522;BME280;32291;52.010;4.446;2023-07-20T02:30:49;78013.50;;;-144.67;100.00
47522;BME280;32291;52.010;4.446;2023-07-20T02:31:51;78017.78;;;-144.67;100.00
47522;BME280;32291;52.010;4.446;2023-07-20T02:32:59;78017.78;;;-144.67;100.00
47522;BME280;32291;52.010;4.446;2023-07-20T02:34:01;78026.34;;;-144.67;100.00
47522;BME280;32291;52.010;4.446;2023-07-20T02:35:04;78019.91;;;-144.67;100.00
47522;BME280;32291;52.010;4.446;2023-07-20T02:36:06;78013.50;;;-144.67;100.00
47522;BME280;32291;52.010;4.446;2023-07-20T02:37:13;78017.78;;;-144.67;100.00
47522;BME280;32291;52.010;4.446;2023-07-20T02:38:20;78017.78;;;-144.67;100.00
47522;BME280;32291;52.010;4.446;2023-07-20T02:39:22;78022.06;;;-144.67;100.00
47522;BME280;32291;52.010;4.446;2023-07-20T02:40:24;78026.34;;;-144.67;100.00
47522;BME280;32291;52.010;4.446;2023-07-20T02:41:33;78022.06;;;-144.67;100.00
47522;BME280;32291;52.010;4.446;2023-07-20T02:42:35;78022.06;;;-144.67;100.00
47522;BME280;32291;52.010;4.446;2023-07-20T02:43:42;78028.47;;;-144.67;100.00
47522;BME280;32291;52.010;4.446;2023-07-20T02:44:49;78030.63;;;-144.67;100.00
47522;BME280;32291;52.010;4.446;2023-07-20T02:45:53;78028.47;;;-144.67;100.00
47522;BME280;32291;52.010;4.446;2023-07-20T02:47:00;78026.34;;;-144.67;100.00
47522;BME280;32291;52.010;4.446;2023-07-20T02:48:07;78032.75;;;-144.67;100.00
47522;BME280;32291;52.010;4.446;2023-07-20T02:49:15;78030.63;;;-144.67;100.00
47522;BME280;32291;52.010;4.446;2023-07-20T02:50:18;78039.19;;;-144.67;100.00
47522;BME280;32291;52.010;4.446;2023-07-20T02:51:24;78037.03;;;-144.67;100.00
47522;BME280;32291;52.010;4.446;2023-07-20T02:52:31;78039.19;;;-144.67;100.00
47522;BME280;32291;52.010;4.446;2023-07-20T02:53:39;78043.47;;;-144.67;100.00
47522;BME280;32291;52.010;4.446;2023-07-20T02:54:46;78047.75;;;-144.67;100.00
47522;BME280;32291;52.010;4.446;2023-07-20T02:55:48;78043.47;;;-144.67;100.00
47522;BME280;32291;52.010;4.446;2023-07-20T02:56:50;78043.47;;;-144.67;100.00
47522;BME280;32291;52.010;4.446;2023-07-20T02:57:52;78052.03;;;-144.67;100.00
47522;BME280;32291;52.010;4.446;2023-07-20T02:58:55;78054.16;;;-144.67;100.00
47522;BME280;32291;52.010;4.446;2023-07-20T02:59:57;78052.03;;;-144.67;100.00
47522;BME280;32291;52.010;4.446;2023-07-20T03:01:04;78056.31;;;-144.67;100.00
47522;BME280;32291;52.010;4.446;2023-07-20T03:02:06;78058.44;;;-144.67;100.00
47522;BME280;32291;52.010;4.446;2023-07-20T03:03:11;78067.03;;;-144.67;100.00
47522;BME280;32291;52.010;4.446;2023-07-20T03:04:18;78058.44;;;-144.67;100.00
47522;BME280;32291;52.010;4.446;2023-07-20T03:05:22;78069.16;;;-144.67;100.00
47522;BME280;32291;52.010;4.446;2023-07-20T03:06:32;78067.03;;;-144.67;100.00
47522;BME280;32291;52.010;4.446;2023-07-20T03:07:38;78071.31;;;-144.67;100.00
47522;BME280;32291;52.010;4.446;2023-07-20T03:08:42;78064.88;;;-144.67;100.00
47522;BME280;32291;52.010;4.446;2023-07-20T03:09:54;78073.44;;;-144.67;100.00
47522;BME280;32291;52.010;4.446;2023-07-20T03:10:56;78077.72;;;-144.67;100.00
47522;BME280;32291;52.010;4.446;2023-07-20T03:11:59;78073.44;;;-144.67;100.00
47522;BME280;32291;52.010;4.446;2023-07-20T03:13:01;78069.16;;;-144.67;100.00
47522;BME280;32291;52.010;4.446;2023-07-20T03:14:08;78073.44;;;-144.67;100.00
47522;BME280;32291;52.010;4.446;2023-07-20T03:15:10;78077.72;;;-144.67;100.00
47522;BME280;32291;52.010;4.446;2023-07-20T03:16:17;78079.88;;;-144.67;100.00
47522;BME280;32291;52.010;4.446;2023-07-20T03:17:19;78073.44;;;-144.67;100.00
47522;BME280;32291;52.010;4.446;2023-07-20T03:18:23;78075.59;;;-144.67;100.00
47522;BME280;32291;52.010;4.446;2023-07-20T03:19:30;78073.44;;;-144.67;100.00
47522;BME280;32291;52.010;4.446;2023-07-20T03:20:37;78082.00;;;-144.67;100.00
47522;BME280;32291;52.010;4.446;2023-07-20T03:21:39;78084.16;;;-144.67;100.00
47522;BME280;32291;52.010;4.446;2023-07-20T03:22:43;78084.16;;;-144.67;100.00
47522;BME280;32291;52.010;4.446;2023-07-20T03:23:45;78086.28;;;-144.67;100.00
47522;BME280;32291;52.010;4.446;2023-07-20T03:24:47;78086.28;;;-144.67;100.00
47522;BME280;32291;52.010;4.446;2023-07-20T03:25:54;78084.16;;;-144.67;100.00
47522;BME280;32291;52.010;4.446;2023-07-20T03:27:02;78082.00;;;-144.67;100.00
47522;BME280;32291;52.010;4.446;2023-07-20T03:28:04;78090.56;;;-144.67;100.00
47522;BME280;32291;52.010;4.446;2023-07-20T03:29:06;78092.72;;;-144.67;100.00
47522;BME280;32291;52.010;4.446;2023-07-20T03:30:09;78094.84;;;-144.67;100.00
47522;BME280;32291;52.010;4.446;2023-07-20T03:31:14;78097.00;;;-144.67;100.00
47522;BME280;32291;52.010;4.446;2023-07-20T03:32:21;78094.84;;;-144.67;100.00
47522;BME280;32291;52.010;4.446;2023-07-20T03:33:29;78101.28;;;-144.67;100.00
47522;BME280;32291;52.010;4.446;2023-07-20T03:34:31;78099.13;;;-144.67;100.00
47522;BME280;32291;52.010;4.446;2023-07-20T03:35:33;78097.00;;;-144.67;100.00
47522;BME280;32291;52.010;4.446;2023-07-20T03:36:35;78090.56;;;-144.67;100.00
47522;BME280;32291;52.010;4.446;2023-07-20T03:37:42;78088.44;;;-144.67;100.00
47522;BME280;32291;52.010;4.446;2023-07-20T03:38:50;78086.28;;;-144.67;100.00
47522;BME280;32291;52.010;4.446;2023-07-20T03:39:52;78086.28;;;-144.67;100.00
47522;BME280;32291;52.010;4.446;2023-07-20T03:40:58;78086.28;;;-144.67;100.00
47522;BME280;32291;52.010;4.446;2023-07-20T03:42:06;78088.44;;;-144.67;100.00
47522;BME280;32291;52.010;4.446;2023-07-20T03:43:16;78086.28;;;-144.67;100.00
47522;BME280;32291;52.010;4.446;2023-07-20T03:44:25;78082.00;;;-144.67;100.00
47522;BME280;32291;52.010;4.446;2023-07-20T03:45:32;78084.16;;;-144.67;100.00
47522;BME280;32291;52.010;4.446;2023-07-20T03:46:34;78082.00;;;-144.67;100.00
47522;BME280;32291;52.010;4.446;2023-07-20T03:47:41;78086.28;;;-144.67;100.00
47522;BME280;32291;52.010;4.446;2023-07-20T03:48:43;78082.00;;;-144.67;100.00
47522;BME280;32291;52.010;4.446;2023-07-20T03:49:51;78082.00;;;-144.67;100.00
47522;BME280;32291;52.010;4.446;2023-07-20T03:50:55;78090.56;;;-144.67;100.00
47522;BME280;32291;52.010;4.446;2023-07-20T03:51:57;78086.28;;;-144.67;100.00
47522;BME280;32291;52.010;4.446;2023-07-20T03:52:59;78086.28;;;-144.67;100.00
47522;BME280;32291;52.010;4.446;2023-07-20T03:54:02;78079.88;;;-144.67;100.00
47522;BME280;32291;52.010;4.446;2023-07-20T03:55:09;78082.00;;;-144.67;100.00
47522;BME280;32291;52.010;4.446;2023-07-20T03:56:11;78082.00;;;-144.67;100.00
47522;BME280;32291;52.010;4.446;2023-07-20T03:57:13;78084.16;;;-144.67;100.00
47522;BME280;32291;52.010;4.446;2023-07-20T03:58:17;78075.59;;;-144.67;100.00
47522;BME280;32291;52.010;4.446;2023-07-20T03:59:20;78077.72;;;-144.67;100.00
47522;BME280;32291;52.010;4.446;2023-07-20T04:00:22;78071.31;;;-144.67;100.00
47522;BME280;32291;52.010;4.446;2023-07-20T04:01:25;78075.59;;;-144.67;100.00
47522;BME280;32291;52.010;4.446;2023-07-20T04:02:26;78077.72;;;-144.67;100.00
47522;BME280;32291;52.010;4.446;2023-07-20T04:03:28;78073.44;;;-144.67;100.00
47522;BME280;32291;52.010;4.446;2023-07-20T04:04:33;78071.31;;;-144.67;100.00
47522;BME280;32291;52.010;4.446;2023-07-20T04:05:35;78071.31;;;-144.67;100.00
47522;BME280;32291;52.010;4.446;2023-07-20T04:06:42;78075.59;;;-144.67;100.00
47522;BME280;32291;52.010;4.446;2023-07-20T04:07:46;78069.16;;;-144.67;100.00
47522;BME280;32291;52.010;4.446;2023-07-20T04:08:53;78071.31;;;-144.67;100.00
47522;BME280;32291;52.010;4.446;2023-07-20T04:10:00;78067.03;;;-144.67;100.00
47522;BME280;32291;52.010;4.446;2023-07-20T04:11:02;78069.16;;;-144.67;100.00
47522;BME280;32291;52.010;4.446;2023-07-20T04:12:06;78064.88;;;-144.67;100.00
47522;BME280;32291;52.010;4.446;2023-07-20T04:13:08;78067.03;;;-144.67;100.00
47522;BME280;32291;52.010;4.446;2023-07-20T04:14:10;78064.88;;;-144.67;100.00
47522;BME280;32291;52.010;4.446;2023-07-20T04:15:13;78064.88;;;-144.67;100.00
47522;BME280;32291;52.010;4.446;2023-07-20T04:16:15;78069.16;;;-144.67;100.00
47522;BME280;32291;52.010;4.446;2023-07-20T04:17:22;78071.31;;;-144.67;100.00
47522;BME280;32291;52.010;4.446;2023-07-20T04:18:25;78073.44;;;-144.67;100.00
47522;BME280;32291;52.010;4.446;2023-07-20T04:19:27;78073.44;;;-144.67;100.00
47522;BME280;32291;52.010;4.446;2023-07-20T04:20:34;78069.16;;;-144.67;100.00
47522;BME280;32291;52.010;4.446;2023-07-20T04:21:40;78075.59;;;-144.67;100.00
47522;BME280;32291;52.010;4.446;2023-07-20T04:22:45;78073.44;;;-144.67;100.00
47522;BME280;32291;52.010;4.446;2023-07-20T04:23:48;78077.72;;;-144.67;100.00
47522;BME280;32291;52.010;4.446;2023-07-20T04:24:55;78064.88;;;-144.67;100.00
47522;BME280;32291;52.010;4.446;2023-07-20T04:26:05;78073.44;;;-144.67;100.00
47522;BME280;32291;52.010;4.446;2023-07-20T04:27:08;78067.03;;;-144.67;100.00
47522;BME280;32291;52.010;4.446;2023-07-20T04:28:15;78071.31;;;-144.67;100.00
47522;BME280;32291;52.010;4.446;2023-07-20T04:29:17;78069.16;;;-144.67;100.00
47522;BME280;32291;52.010;4.446;2023-07-20T04:30:19;78069.16;;;-144.67;100.00
47522;BME280;32291;52.010;4.446;2023-07-20T04:31:28;78075.59;;;-144.67;100.00
47522;BME280;32291;52.010;4.446;2023-07-20T04:32:34;78075.59;;;-144.67;100.00
47522;BME280;32291;52.010;4.446;2023-07-20T04:33:37;78077.72;;;-144.67;100.00
47522;BME280;32291;52.010;4.446;2023-07-20T04:34:44;78077.72;;;-144.67;100.00
47522;BME280;32291;52.010;4.446;2023-07-20T04:35:53;78073.44;;;-144.67;100.00
47522;BME280;32291;52.010;4.446;2023-07-20T04:37:00;78075.59;;;-144.67;100.00
47522;BME280;32291;52.010;4.446;2023-07-20T04:38:02;78077.72;;;-144.67;100.00
47522;BME280;32291;52.010;4.446;2023-07-20T04:39:04;78077.72;;;-144.67;100.00
47522;BME280;32291;52.010;4.446;2023-07-20T04:40:15;78073.44;;;-144.67;100.00
47522;BME280;32291;52.010;4.446;2023-07-20T04:41:22;78077.72;;;-144.67;100.00
47522;BME280;32291;52.010;4.446;2023-07-20T04:42:25;78082.00;;;-144.67;100.00
47522;BME280;32291;52.010;4.446;2023-07-20T04:43:29;78075.59;;;-144.67;100.00
47522;BME280;32291;52.010;4.446;2023-07-20T04:44:36;78077.72;;;-144.67;100.00
47522;BME280;32291;52.010;4.446;2023-07-20T04:45:43;78082.00;;;-144.67;100.00
47522;BME280;32291;52.010;4.446;2023-07-20T04:46:50;78079.88;;;-144.67;100.00
47522;BME280;32291;52.010;4.446;2023-07-20T04:47:52;78073.44;;;-144.67;100.00
47522;BME280;32291;52.010;4.446;2023-07-20T04:48:54;78073.44;;;-144.67;100.00
47522;BME280;32291;52.010;4.446;2023-07-20T04:50:01;78082.00;;;-144.67;100.00
47522;BME280;32291;52.010;4.446;2023-07-20T04:51:03;78075.59;;;-144.67;100.00
47522;BME280;32291;52.010;4.446;2023-07-20T04:52:06;78064.88;;;-144.67;100.00
47522;BME280;32291;52.010;4.446;2023-07-20T04:53:13;78077.72;;;-144.67;100.00
47522;BME280;32291;52.010;4.446;2023-07-20T04:54:20;78079.88;;;-144.67;100.00
47522;BME280;32291;52.010;4.446;2023-07-20T04:55:22;78082.00;;;-144.67;100.00
47522;BME280;32291;52.010;4.446;2023-07-20T04:56:29;78094.84;;;-144.67;100.00
47522;BME280;32291;52.010;4.446;2023-07-20T04:57:31;78094.84;;;-144.67;100.00
47522;BME280;32291;52.010;4.446;2023-07-20T04:58:34;78099.13;;;-144.67;100.00
47522;BME280;32291;52.010;4.446;2023-07-20T04:59:37;78090.56;;;-144.67;100.00
47522;BME280;32291;52.010;4.446;2023-07-20T05:00:39;78094.84;;;-144.67;100.00
47522;BME280;32291;52.010;4.446;2023-07-20T05:01:46;78086.28;;;-144.67;100.00
47522;BME280;32291;52.010;4.446;2023-07-20T05:02:53;78094.84;;;-144.67;100.00
47522;BME280;32291;52.010;4.446;2023-07-20T05:04:00;78094.84;;;-144.67;100.00
47522;BME280;32291;52.010;4.446;2023-07-20T05:05:07;78092.72;;;-144.67;100.00
47522;BME280;32291;52.010;4.446;2023-07-20T05:06:14;78086.28;;;-144.67;100.00
47522;BME280;32291;52.010;4.446;2023-07-20T05:07:16;78090.56;;;-144.67;100.00
47522;BME280;32291;52.010;4.446;2023-07-20T05:08:18;78082.00;;;-144.67;100.00
47522;BME280;32291;52.010;4.446;2023-07-20T05:09:21;78082.00;;;-144.67;100.00
47522;BME280;32291;52.010;4.446;2023-07-20T05:10:24;78073.44;;;-144.67;100.00
47522;BME280;32291;52.010;4.446;2023-07-20T05:11:26;78064.88;;;-144.67;100.00
47522;BME280;32291;52.010;4.446;2023-07-20T05:12:33;78064.88;;;-144.67;100.00
47522;BME280;32291;52.010;4.446;2023-07-20T05:13:40;78069.16;;;-144.67;100.00
47522;BME280;32291;52.010;4.446;2023-07-20T05:14:47;78060.59;;;-144.67;100.00
47522;BME280;32291;52.010;4.446;2023-07-20T05:15:54;78060.59;;;-144.67;100.00
47522;BME280;32291;52.010;4.446;2023-07-20T05:17:01;78052.03;;;-144.67;100.00
47522;BME280;32291;52.010;4.446;2023-07-20T05:18:09;78047.75;;;-144.67;100.00
47522;BME280;32291;52.010;4.446;2023-07-20T05:19:16;78043.47;;;-144.67;100.00
47522;BME280;32291;52.010;4.446;2023-07-20T05:20:18;78039.19;;;-144.67;100.00
47522;BME280;32291;52.010;4.446;2023-07-20T05:21:23;78037.03;;;-144.67;100.00
47522;BME280;32291;52.010;4.446;2023-07-20T05:22:25;78039.19;;;-144.67;100.00
47522;BME280;32291;52.010;4.446;2023-07-20T05:23:32;78022.06;;;-144.67;100.00
47522;BME280;32291;52.010;4.446;2023-07-20T05:24:34;78030.63;;;-144.67;100.00
47522;BME280;32291;52.010;4.446;2023-07-20T05:25:41;78024.19;;;-144.67;100.00
47522;BME280;32291;52.010;4.446;2023-07-20T05:26:48;78013.50;;;-144.67;100.00
47522;BME280;32291;52.010;4.446;2023-07-20T05:27:52;78011.34;;;-144.67;100.00
47522;BME280;32291;52.010;4.446;2023-07-20T05:28:59;78011.34;;;-144.67;100.00
47522;BME280;32291;52.010;4.446;2023-07-20T05:30:01;78009.22;;;-144.67;100.00
47522;BME280;32291;52.010;4.446;2023-07-20T05:31:04;78004.94;;;-144.67;100.00
47522;BME280;32291;52.010;4.446;2023-07-20T05:32:07;77996.38;;;-144.67;100.00
47522;BME280;32291;52.010;4.446;2023-07-20T05:33:14;77987.81;;;-144.67;100.00
47522;BME280;32291;52.010;4.446;2023-07-20T05:34:16;77987.81;;;-144.67;100.00
47522;BME280;32291;52.010;4.446;2023-07-20T05:35:18;77994.22;;;-144.67;100.00
47522;BME280;32291;52.010;4.446;2023-07-20T05:36:20;77983.53;;;-144.67;100.00
47522;BME280;32291;52.010;4.446;2023-07-20T05:37:23;77983.53;;;-144.67;100.00
47522;BME280;32291;52.010;4.446;2023-07-20T05:38:25;77977.09;;;-144.67;100.00
47522;BME280;32291;52.010;4.446;2023-07-20T05:39:28;77966.41;;;-144.67;100.00
47522;BME280;32291;52.010;4.446;2023-07-20T05:40:38;77962.13;;;-144.67;100.00